createdAt,value
2018-01-30T00:00:44.519Z,24.97
2018-01-30T00:03:12.532Z,11.60
2018-01-30T00:05:40.450Z,20.70
2018-01-30T00:08:08.532Z,15.17
2018-01-30T00:10:36.478Z,16.80
2018-01-30T00:13:04.432Z,14.00
2018-01-30T00:15:33.228Z,13.30
2018-01-30T00:18:01.946Z,18.07
2018-01-30T00:20:29.859Z,17.97
2018-01-30T00:22:58.075Z,16.10
2018-01-30T00:25:26.040Z,21.87
2018-01-30T00:27:54.852Z,13.00
2018-01-30T00:30:22.920Z,23.33
2018-01-30T00:32:50.865Z,16.53
2018-01-30T00:35:19.543Z,17.67
2018-01-30T00:37:48.412Z,12.20
2018-01-30T00:40:16.331Z,14.43
2018-01-30T00:42:44.345Z,15.03
2018-01-30T00:45:12.521Z,12.53
2018-01-30T00:47:40.445Z,10.90
2018-01-30T00:50:08.413Z,15.47
2018-01-30T00:52:36.465Z,14.03
2018-01-30T00:55:05.171Z,9.03
2018-01-30T00:57:33.078Z,14.63
2018-01-30T01:00:01.287Z,12.13
2018-01-30T01:02:29.959Z,11.90
2018-01-30T01:04:57.885Z,23.23
2018-01-30T01:07:25.977Z,12.10
2018-01-30T01:09:53.905Z,20.07
2018-01-30T01:12:22.697Z,13.70
2018-01-30T01:14:51.469Z,11.43
2018-01-30T01:17:19.483Z,12.90
2018-01-30T01:19:47.408Z,14.30
2018-01-30T01:22:16.486Z,12.80
2018-01-30T01:24:44.414Z,9.90
2018-01-30T01:27:12.546Z,19.43
2018-01-30T01:29:41.355Z,17.00
2018-01-30T01:32:09.994Z,11.30
2018-01-30T01:34:37.927Z,13.90
2018-01-30T01:37:06.104Z,11.30
2018-01-30T01:39:34.034Z,11.83
2018-01-30T01:42:01.953Z,14.63
2018-01-30T01:44:30.163Z,19.53
2018-01-30T01:46:58.217Z,19.90
2018-01-30T01:49:31.919Z,22.33
2018-01-30T01:51:59.825Z,19.33
2018-01-30T01:54:27.747Z,19.40
2018-01-30T01:56:55.816Z,15.57
2018-01-30T01:59:23.736Z,24.23
2018-01-30T02:01:51.633Z,25.97
2018-01-30T02:04:19.561Z,16.73
2018-01-30T02:06:47.489Z,23.67
2018-01-30T02:09:15.920Z,23.10
2018-01-30T02:11:43.849Z,19.43
2018-01-30T02:14:11.796Z,26.40
2018-01-30T02:16:39.721Z,16.50
2018-01-30T02:19:07.701Z,27.27
2018-01-30T02:21:35.841Z,18.30
2018-01-30T02:24:03.745Z,26.83
2018-01-30T02:26:31.800Z,18.27
2018-01-30T02:28:59.724Z,20.57
2018-01-30T02:31:27.684Z,29.17
2018-01-30T02:33:56.475Z,29.90
2018-01-30T02:36:25.284Z,24.67
2018-01-30T02:38:53.208Z,18.27
2018-01-30T02:41:21.260Z,31.53
2018-01-30T02:43:49.178Z,20.93
2018-01-30T02:46:17.174Z,30.67
2018-01-30T02:48:45.234Z,33.73
2018-01-30T02:51:13.404Z,25.60
2018-01-30T02:53:41.313Z,28.97
2018-01-30T02:56:09.380Z,18.93
2018-01-30T02:58:37.298Z,22.53
2018-01-30T03:01:05.993Z,39.53
2018-01-30T03:03:34.923Z,33.10
2018-01-30T03:06:02.872Z,30.47
2018-01-30T03:08:30.793Z,35.73
2018-01-30T03:10:58.840Z,25.53
2018-01-30T03:13:26.773Z,23.53
2018-01-30T03:15:54.702Z,15.00
2018-01-30T03:18:22.957Z,23.37
2018-01-30T03:20:50.899Z,20.27
2018-01-30T03:23:18.806Z,15.77
2018-01-30T03:25:46.844Z,36.00
2018-01-30T03:28:14.745Z,24.00
2018-01-30T03:30:42.682Z,28.07
2018-01-30T03:33:10.711Z,25.00
2018-01-30T03:35:38.636Z,24.03
2018-01-30T03:38:06.626Z,23.73
2018-01-30T03:40:34.711Z,24.87
2018-01-30T03:43:02.647Z,38.67
2018-01-30T03:45:30.592Z,22.03
2018-01-30T03:47:58.662Z,31.43
2018-01-30T03:50:26.577Z,25.97
2018-01-30T03:52:54.518Z,32.63
2018-01-30T03:55:22.553Z,27.30
2018-01-30T03:57:51.219Z,35.23
2018-01-30T04:00:19.156Z,21.33
2018-01-30T04:02:47.237Z,24.13
2018-01-30T04:05:15.467Z,25.80
2018-01-30T04:07:44.128Z,35.13
2018-01-30T04:10:12.196Z,28.30
2018-01-30T04:12:40.109Z,40.10
2018-01-30T04:15:08.356Z,27.40
2018-01-30T04:17:36.397Z,23.70
2018-01-30T04:20:04.443Z,34.17
2018-01-30T04:22:32.350Z,30.17
2018-01-30T04:25:00.413Z,29.77
2018-01-30T04:27:28.335Z,25.33
2018-01-30T04:29:56.995Z,31.07
2018-01-30T04:32:25.051Z,33.67
2018-01-30T04:34:53.148Z,26.80
2018-01-30T04:37:21.172Z,29.43
2018-01-30T04:39:49.218Z,29.57
2018-01-30T04:42:17.133Z,25.53
2018-01-30T04:44:45.056Z,36.70
2018-01-30T04:47:13.175Z,39.63
2018-01-30T04:49:41.360Z,38.27
2018-01-30T04:52:09.307Z,22.37
2018-01-30T04:54:37.345Z,37.00
2018-01-30T04:57:06.055Z,29.67
2018-01-30T04:59:33.973Z,34.57
2018-01-30T05:02:02.044Z,34.00
2018-01-30T05:04:30.128Z,39.40
2018-01-30T05:06:58.975Z,35.57
2018-01-30T05:09:27.013Z,42.53
2018-01-30T05:11:54.951Z,29.80
2018-01-30T05:14:22.880Z,27.40
2018-01-30T05:16:50.940Z,39.27
2018-01-30T05:19:18.880Z,25.80
2018-01-30T05:21:47.556Z,47.73
2018-01-30T05:24:15.645Z,39.90
2018-01-30T05:26:44.369Z,37.40
2018-01-30T05:29:12.290Z,30.53
2018-01-30T05:31:41.102Z,29.17
2018-01-30T05:34:09.017Z,29.50
2018-01-30T05:36:37.062Z,31.13
2018-01-30T05:39:05.347Z,36.03
2018-01-30T05:41:33.266Z,40.90
2018-01-30T05:44:01.922Z,33.80
2018-01-30T05:46:29.968Z,49.37
2018-01-30T05:48:57.895Z,29.53
2018-01-30T05:51:26.549Z,27.23
2018-01-30T05:53:54.609Z,23.60
2018-01-30T05:56:22.513Z,48.70
2018-01-30T05:58:50.445Z,34.07
2018-01-30T06:01:18.539Z,26.40
2018-01-30T06:03:46.449Z,24.80
2018-01-30T06:06:15.188Z,27.87
2018-01-30T06:08:43.382Z,20.57
2018-01-30T06:11:11.332Z,13.17
2018-01-30T06:13:39.272Z,11.93
2018-01-30T06:16:07.330Z,9.93
2018-01-30T06:18:36.020Z,10.63
2018-01-30T06:21:03.964Z,10.70
2018-01-30T06:23:32.023Z,12.43
2018-01-30T06:25:59.960Z,11.97
2018-01-30T06:28:27.871Z,10.90
2018-01-30T06:30:55.914Z,9.90
2018-01-30T06:33:23.817Z,10.80
2018-01-30T06:35:51.740Z,5.77
2018-01-30T06:38:19.817Z,9.67
2018-01-30T06:40:47.755Z,10.03
2018-01-30T06:43:15.691Z,19.53
2018-01-30T06:45:43.734Z,13.90
2018-01-30T06:48:11.671Z,10.30
2018-01-30T06:50:39.602Z,9.77
2018-01-30T06:53:07.671Z,13.43
2018-01-30T06:55:35.698Z,9.63
2018-01-30T06:58:03.636Z,15.13
2018-01-30T07:00:32.487Z,10.10
2018-01-30T07:03:00.420Z,10.10
2018-01-30T07:05:28.340Z,7.70
2018-01-30T07:07:56.406Z,9.03
2018-01-30T07:10:24.492Z,9.60
2018-01-30T07:12:52.402Z,7.33
2018-01-30T07:15:20.466Z,7.87
2018-01-30T07:17:48.410Z,9.67
2018-01-30T07:20:16.324Z,7.53
2018-01-30T07:22:44.396Z,9.23
2018-01-30T07:25:12.305Z,8.07
2018-01-30T07:27:40.237Z,12.27
2018-01-30T07:30:08.326Z,10.17
2018-01-30T07:32:37.421Z,11.20
2018-01-30T07:35:05.497Z,10.13
2018-01-30T07:37:33.553Z,15.63
2018-01-30T07:40:01.472Z,10.27
2018-01-30T07:42:29.387Z,9.37
2018-01-30T07:44:57.448Z,17.20
2018-01-30T07:47:25.443Z,8.13
2018-01-30T07:49:53.367Z,7.03
2018-01-30T07:52:22.166Z,8.33
2018-01-30T07:54:50.833Z,10.90
2018-01-30T07:57:20.785Z,8.80
2018-01-30T07:59:48.853Z,7.47
2018-01-30T08:02:16.791Z,9.70
2018-01-30T08:04:44.719Z,9.00
2018-01-30T08:07:12.832Z,7.07
2018-01-30T08:09:40.756Z,14.63
2018-01-30T08:12:08.805Z,7.83
2018-01-30T08:14:36.960Z,6.60
2018-01-30T08:17:05.698Z,10.40
2018-01-30T08:19:33.610Z,15.13
2018-01-30T08:22:01.646Z,8.40
2018-01-30T08:24:29.569Z,11.47
2018-01-30T08:26:58.278Z,9.37
2018-01-30T08:29:26.328Z,9.70
2018-01-30T08:31:55.010Z,8.33
2018-01-30T08:34:23.666Z,11.77
2018-01-30T08:36:51.836Z,9.63
2018-01-30T08:39:19.775Z,8.13
2018-01-30T08:41:47.681Z,8.83
2018-01-30T08:44:15.712Z,7.40
2018-01-30T08:46:43.684Z,8.37
2018-01-30T08:49:11.595Z,9.60
2018-01-30T08:51:39.664Z,7.07
2018-01-30T08:54:07.623Z,8.63
2018-01-30T08:56:35.591Z,9.53
2018-01-30T08:59:03.631Z,8.50
2018-01-30T09:01:31.549Z,9.00
2018-01-30T09:03:59.445Z,18.23
2018-01-30T09:06:28.221Z,6.93
2018-01-30T09:08:56.149Z,9.17
2018-01-30T09:11:24.071Z,12.13
2018-01-30T09:13:52.989Z,8.83
2018-01-30T09:16:20.987Z,10.13
2018-01-30T09:18:48.912Z,8.77
2018-01-30T09:21:17.733Z,10.93
2018-01-30T09:23:45.645Z,9.53
2018-01-30T09:26:13.561Z,9.10
2018-01-30T09:28:41.606Z,11.03
2018-01-30T09:31:10.258Z,8.97
2018-01-30T09:33:38.192Z,6.70
2018-01-30T09:36:06.290Z,11.20
2018-01-30T09:38:34.227Z,10.03
2018-01-30T09:41:02.151Z,10.90
2018-01-30T09:43:30.202Z,8.67
2018-01-30T09:45:58.166Z,5.30
2018-01-30T09:48:26.092Z,10.67
2018-01-30T09:50:55.172Z,11.93
2018-01-30T09:53:23.112Z,7.43
2018-01-30T09:55:51.029Z,6.17
2018-01-30T09:58:19.818Z,15.57
2018-01-30T10:00:48.713Z,15.57
2018-01-30T10:03:16.787Z,13.60
2018-01-30T10:05:45.603Z,9.83
2018-01-30T10:08:13.517Z,7.07
2018-01-30T10:10:41.447Z,7.43
2018-01-30T10:13:09.477Z,8.57
2018-01-30T10:15:38.284Z,12.60
2018-01-30T10:18:06.351Z,8.00
2018-01-30T10:20:35.138Z,8.33
2018-01-30T10:23:03.790Z,8.60
2018-01-30T10:25:31.709Z,10.50
2018-01-30T10:27:59.809Z,11.93
2018-01-30T10:30:27.718Z,11.53
2018-01-30T10:32:55.659Z,8.33
2018-01-30T10:35:23.707Z,8.80
2018-01-30T10:37:51.633Z,6.47
2018-01-30T10:40:20.316Z,17.13
2018-01-30T10:42:48.367Z,8.63
2018-01-30T10:45:16.277Z,9.83
2018-01-30T10:47:44.943Z,7.33
2018-01-30T10:50:13.005Z,6.93
2018-01-30T10:52:40.939Z,11.60
2018-01-30T10:55:08.863Z,9.33
2018-01-30T10:57:37.660Z,9.13
2018-01-30T11:00:06.321Z,9.90
2018-01-30T11:02:34.246Z,6.57
2018-01-30T11:05:02.295Z,6.87
2018-01-30T11:07:30.213Z,9.83
2018-01-30T11:09:58.156Z,6.57
2018-01-30T11:12:26.195Z,11.40
2018-01-30T11:14:54.846Z,7.20
2018-01-30T11:17:22.986Z,9.00
2018-01-30T11:19:51.079Z,14.50
2018-01-30T11:22:19.259Z,8.50
2018-01-30T11:24:47.216Z,8.93
2018-01-30T11:27:15.320Z,11.33
2018-01-30T11:29:43.267Z,6.07
2018-01-30T11:32:11.173Z,6.50
2018-01-30T11:34:39.227Z,7.80
2018-01-30T11:37:07.154Z,9.77
2018-01-30T11:39:35.096Z,7.30
2018-01-30T11:42:03.895Z,10.50
2018-01-30T11:44:32.560Z,11.03
2018-01-30T11:47:00.675Z,14.40
2018-01-30T11:49:28.730Z,9.90
2018-01-30T11:51:57.400Z,12.63
2018-01-30T11:54:25.338Z,7.70
2018-01-30T11:56:53.694Z,9.70
2018-01-30T11:59:21.618Z,5.83
2018-01-30T12:01:52.694Z,10.10
2018-01-30T12:04:21.754Z,8.93
2018-01-30T12:06:49.781Z,9.37
2018-01-30T12:09:17.723Z,13.70
2018-01-30T12:11:45.815Z,9.60
2018-01-30T12:14:13.777Z,7.17
2018-01-30T12:16:41.701Z,11.57
2018-01-30T12:19:09.765Z,9.40
2018-01-30T12:21:37.698Z,9.77
2018-01-30T12:24:05.630Z,11.43
2018-01-30T12:26:34.477Z,14.80
2018-01-30T12:29:02.406Z,13.03
2018-01-30T12:31:31.059Z,14.13
2018-01-30T12:33:59.117Z,8.73
2018-01-30T12:36:27.074Z,14.47
2018-01-30T12:38:54.991Z,7.77
2018-01-30T12:41:23.800Z,9.10
2018-01-30T12:43:51.745Z,9.63
2018-01-30T12:46:19.698Z,9.73
2018-01-30T12:48:47.803Z,8.10
2018-01-30T12:51:16.461Z,11.50
2018-01-30T12:53:44.385Z,14.80
2018-01-30T12:56:12.508Z,10.07
2018-01-30T12:58:40.440Z,15.73
2018-01-30T13:01:09.086Z,9.97
2018-01-30T13:03:37.874Z,13.23
2018-01-30T13:06:06.653Z,7.20
2018-01-30T13:08:35.339Z,11.23
2018-01-30T13:11:04.145Z,8.63
2018-01-30T13:13:32.810Z,11.57
2018-01-30T13:16:00.731Z,11.73
2018-01-30T13:18:28.779Z,8.10
2018-01-30T13:20:56.724Z,9.80
2018-01-30T13:23:24.640Z,8.47
2018-01-30T13:25:52.688Z,11.83
2018-01-30T13:28:21.350Z,9.57
2018-01-30T13:30:50.037Z,10.93
2018-01-30T13:33:19.027Z,9.63
2018-01-30T13:35:47.060Z,9.00
2018-01-30T13:38:15.816Z,11.20
2018-01-30T13:40:44.619Z,9.33
2018-01-30T13:43:12.580Z,17.43
2018-01-30T13:45:41.295Z,13.70
2018-01-30T13:48:09.340Z,10.80
2018-01-30T13:50:37.269Z,16.47
2018-01-30T13:53:05.189Z,11.13
2018-01-30T13:55:33.243Z,13.77
2018-01-30T13:58:01.933Z,13.20
2018-01-30T14:00:30.593Z,15.67
2018-01-30T14:02:58.672Z,11.00
2018-01-30T14:05:26.608Z,11.00
2018-01-30T14:07:54.800Z,13.23
2018-01-30T14:10:22.838Z,18.33
2018-01-30T14:12:50.729Z,13.33
2018-01-30T14:15:18.637Z,12.90
2018-01-30T14:17:47.453Z,15.47
2018-01-30T14:20:15.378Z,13.63
2018-01-30T14:22:43.308Z,13.70
2018-01-30T14:25:11.385Z,12.23
2018-01-30T14:27:39.345Z,19.90
2018-01-30T14:30:07.284Z,14.00
2018-01-30T14:32:36.101Z,12.63
2018-01-30T14:35:04.097Z,12.27
2018-01-30T14:37:32.028Z,12.97
2018-01-30T14:40:00.137Z,12.10
2018-01-30T14:42:28.183Z,9.80
2018-01-30T14:44:56.773Z,12.00
2018-01-30T14:47:24.920Z,13.07
2018-01-30T14:49:53.033Z,12.50
2018-01-30T14:52:20.965Z,13.20
2018-01-30T14:54:49.772Z,13.87
2018-01-30T14:57:17.787Z,13.50
2018-01-30T14:59:45.741Z,10.37
2018-01-30T15:02:13.794Z,16.17
2018-01-30T15:04:41.743Z,21.37
2018-01-30T15:07:10.619Z,13.70
2018-01-30T15:09:39.593Z,15.87
2018-01-30T15:12:07.539Z,14.53
2018-01-30T15:14:35.483Z,19.73
2018-01-30T15:17:03.632Z,22.57
2018-01-30T15:19:32.277Z,16.40
2018-01-30T15:22:00.189Z,17.97
2018-01-30T15:24:28.963Z,15.70
2018-01-30T15:26:57.001Z,10.70
2018-01-30T15:29:24.948Z,11.17
2018-01-30T15:31:53.000Z,19.27
2018-01-30T15:34:21.653Z,15.07
2018-01-30T15:36:49.691Z,12.13
2018-01-30T15:39:17.725Z,13.60
2018-01-30T15:41:46.386Z,12.47
2018-01-30T15:44:14.302Z,20.77
2018-01-30T15:46:42.432Z,19.50
2018-01-30T15:49:10.364Z,10.23
2018-01-30T15:51:38.344Z,11.10
2018-01-30T15:54:06.389Z,15.00
2018-01-30T15:56:34.375Z,11.47
2018-01-30T15:59:02.291Z,11.10
2018-01-30T16:01:30.388Z,20.37
2018-01-30T16:03:59.174Z,8.93
2018-01-30T16:06:27.840Z,12.97
2018-01-30T16:08:55.914Z,11.63
2018-01-30T16:11:23.860Z,15.10
2018-01-30T16:13:51.808Z,17.50
2018-01-30T16:16:19.872Z,15.13
2018-01-30T16:18:47.801Z,14.30
2018-01-30T16:21:16.457Z,14.47
2018-01-30T16:23:44.502Z,15.40
2018-01-30T16:26:12.488Z,14.10
2018-01-30T16:28:40.401Z,19.43
2018-01-30T16:31:09.173Z,16.43
2018-01-30T16:33:37.101Z,11.83
2018-01-30T16:36:05.115Z,14.83
2018-01-30T16:38:33.324Z,13.83
2018-01-30T16:41:02.033Z,18.03
2018-01-30T16:43:30.105Z,17.40
2018-01-30T16:45:58.327Z,16.03
2018-01-30T17:18:34.917Z,13.37
2018-01-30T17:21:04.372Z,14.77
2018-01-30T17:23:32.316Z,12.70
2018-01-30T17:26:00.852Z,15.43
2018-01-30T17:28:29.197Z,13.90
2018-01-30T17:30:59.329Z,13.40
2018-01-30T17:33:28.605Z,15.90
2018-01-30T17:35:57.481Z,11.33
2018-01-30T17:38:26.182Z,12.77
2018-01-30T17:40:54.489Z,11.37
2018-01-30T17:43:24.731Z,13.73
2018-01-30T17:45:52.738Z,9.87
2018-01-30T17:48:20.770Z,14.80
2018-01-30T17:50:48.834Z,22.93
2018-01-30T17:53:16.895Z,18.77
2018-01-30T17:55:44.975Z,13.40
2018-01-30T17:58:13.640Z,13.03
2018-01-30T18:00:41.561Z,12.23
2018-01-30T18:03:09.607Z,12.40
2018-01-30T18:05:38.467Z,13.30
2018-01-30T18:08:06.513Z,21.37
2018-01-30T18:10:34.763Z,16.87
2018-01-30T18:13:02.707Z,13.63
2018-01-30T18:15:30.618Z,18.90
2018-01-30T18:17:58.676Z,8.00
2018-01-30T18:20:26.834Z,16.03
2018-01-30T18:22:55.564Z,12.97
2018-01-30T18:25:23.836Z,9.73
2018-01-30T18:27:51.890Z,11.43
2018-01-30T18:30:20.109Z,12.03
2018-01-30T18:32:50.746Z,12.80
2018-01-30T18:35:19.101Z,13.20
2018-01-30T18:37:47.348Z,11.33
2018-01-30T18:40:15.700Z,11.63
2018-01-30T18:42:43.726Z,8.20
2018-01-30T18:45:11.950Z,10.70
2018-01-30T18:47:41.470Z,11.40
2018-01-30T18:50:11.851Z,10.07
2018-01-30T18:52:39.952Z,7.67
2018-01-30T18:55:08.105Z,8.20
2018-01-30T18:57:36.140Z,10.53
2018-01-30T19:00:07.576Z,11.40
2018-01-30T19:02:37.289Z,12.60
2018-01-30T19:05:10.812Z,13.40
2018-01-30T19:07:41.935Z,9.70
2018-01-30T19:10:10.313Z,9.13
2018-01-30T19:12:38.357Z,6.80
2018-01-30T19:15:07.716Z,12.43
2018-01-30T19:17:35.920Z,7.77
2018-01-30T19:20:04.236Z,5.80
2018-01-30T19:22:32.695Z,11.30
2018-01-30T19:25:01.587Z,12.23
2018-01-30T19:27:30.424Z,9.77
2018-01-30T19:29:58.548Z,9.73
2018-01-30T19:32:26.485Z,9.47
2018-01-30T19:34:54.411Z,7.50
2018-01-30T19:37:23.261Z,9.70
2018-01-30T19:39:51.191Z,13.03
2018-01-30T19:42:19.115Z,12.17
2018-01-30T19:44:47.184Z,8.93
2018-01-30T19:47:15.231Z,8.43
2018-01-30T19:49:43.142Z,11.33
2018-01-30T19:52:11.191Z,10.50
2018-01-30T19:54:39.124Z,11.03
2018-01-30T19:57:07.105Z,8.93
2018-01-30T19:59:35.142Z,7.50
2018-01-30T20:02:03.885Z,6.80
2018-01-30T20:04:31.809Z,13.10
2018-01-30T20:07:00.653Z,7.50
2018-01-30T20:09:28.579Z,9.60
2018-01-30T20:11:56.501Z,7.00
2018-01-30T20:14:24.545Z,6.93
2018-01-30T20:16:52.498Z,12.97
2018-01-30T20:19:20.406Z,5.80
2018-01-30T20:21:48.459Z,11.83
2018-01-30T20:24:16.365Z,11.03
2018-01-30T20:26:45.145Z,11.23
2018-01-30T20:29:13.216Z,9.50
2018-01-30T20:31:41.133Z,9.30
2018-01-30T20:34:09.042Z,13.83
2018-01-30T20:36:37.977Z,14.63
2018-01-30T20:39:06.643Z,10.47
2018-01-30T20:41:34.571Z,9.83
2018-01-30T20:44:02.616Z,8.13
2018-01-30T20:46:31.332Z,7.63
2018-01-30T20:48:59.252Z,5.57
2018-01-30T20:51:28.034Z,7.00
2018-01-30T20:53:55.952Z,8.47
2018-01-30T20:56:23.943Z,12.53
2018-01-30T20:58:51.994Z,8.17
2018-01-30T21:01:19.905Z,11.07
2018-01-30T21:03:47.824Z,6.03
2018-01-30T21:06:15.958Z,8.20
2018-01-30T21:08:43.874Z,7.40
2018-01-30T21:11:11.777Z,8.93
2018-01-30T21:13:40.096Z,6.57
2018-01-30T21:16:08.789Z,10.43
2018-01-30T21:18:37.443Z,15.07
2018-01-30T21:21:05.500Z,11.40
2018-01-30T21:23:33.431Z,9.00
2018-01-30T21:26:01.500Z,7.57
2018-01-30T21:28:29.533Z,17.23
2018-01-30T21:30:57.464Z,12.03
2018-01-30T21:33:25.377Z,6.77
2018-01-30T21:35:53.423Z,9.23
2018-01-30T21:38:21.356Z,12.57
2018-01-30T21:40:49.283Z,8.63
2018-01-30T21:43:17.325Z,9.83
2018-01-30T21:45:45.233Z,10.03
2018-01-30T21:48:13.151Z,5.63
2018-01-30T21:50:41.211Z,9.13
2018-01-30T21:53:09.256Z,10.63
2018-01-30T21:55:37.910Z,6.83
2018-01-30T21:58:05.973Z,12.10
2018-01-30T22:00:33.899Z,14.77
2018-01-30T22:03:02.590Z,5.70
2018-01-30T22:05:30.644Z,12.00
2018-01-30T22:07:59.306Z,13.23
2018-01-30T22:10:27.224Z,11.60
2018-01-30T22:12:55.314Z,8.37
2018-01-30T22:15:23.232Z,11.30
2018-01-30T22:17:51.172Z,14.13
2018-01-30T22:20:19.231Z,9.80
2018-01-30T22:22:47.161Z,14.53
2018-01-30T22:25:15.805Z,12.93
2018-01-30T22:27:44.095Z,8.23
2018-01-30T22:30:11.997Z,14.60
2018-01-30T22:32:40.653Z,10.27
2018-01-30T22:35:08.696Z,13.90
2018-01-30T22:37:36.608Z,14.73
2018-01-30T22:40:04.641Z,13.90
2018-01-30T22:42:32.713Z,11.87
2018-01-30T22:45:00.612Z,12.77
